Time;durP1;ratioP1;P1;durP2;ratioP2;P2;SDS_P1;SDS_P2;PMS_P1;PMS_P2;Temp;Humidity;BMP_temperature;BMP_pressure;BME280_temperature;BME280_humidity;BME280_pressure;Samples;Min_cycle;Max_cycle;Signal;HPM_P1;HPM_P2
2022/10/10 00:01:59;;;;;;;10.45;2.35;;;;;;;6.09;100.00;100109.81;1627881;87;20931;-77
2022/10/10 00:04:29;;;;;;;7.30;2.65;;;;;;;6.09;100.00;100109.81;1628583;87;20950;-76
2022/10/10 00:06:59;;;;;;;7.33;2.87;;;;;;;6.03;100.00;100110.08;1646878;87;21564;-77
2022/10/10 00:09:29;;;;;;;7.75;3.05;;;;;;;6.02;100.00;100113.36;1652451;85;20905;-76
2022/10/10 00:12:00;;;;;;;7.17;2.58;;;;;;;6.00;100.00;100110.63;1664777;86;21582;-76
2022/10/10 00:14:33;;;;;;;4.67;2.65;;;;;;;6.01;100.00;100113.62;1646681;87;21448;-76
2022/10/10 00:17:04;;;;;;;6.47;2.62;;;;;;;6.01;100.00;100113.62;1656726;86;20996;-77
2022/10/10 00:19:32;;;;;;;7.65;2.70;;;;;;;5.96;100.00;100115.26;1664938;86;21000;-78
2022/10/10 00:22:03;;;;;;;5.25;2.15;;;;;;;5.92;100.00;100108.71;1663174;86;20984;-78
2022/10/10 00:24:33;;;;;;;6.67;2.10;;;;;;;5.90;100.00;100112.25;1663213;86;20941;-79
2022/10/10 00:27:06;;;;;;;5.87;1.92;;;;;;;5.89;100.00;100111.98;1664805;86;21125;-79
2022/10/10 00:29:37;;;;;;;7.97;2.25;;;;;;;5.89;100.00;100111.98;1664480;86;26360;-78
2022/10/10 00:32:05;;;;;;;6.63;2.53;;;;;;;5.90;100.00;100110.08;1665282;86;21453;-78
2022/10/10 00:34:34;;;;;;;7.60;1.87;;;;;;;5.89;100.00;100104.34;1664789;86;21531;-79
2022/10/10 00:37:07;;;;;;;8.20;2.33;;;;;;;5.88;100.00;100114.40;1663931;86;21013;-79
2022/10/10 00:39:35;;;;;;;4.28;2.15;;;;;;;5.87;100.00;100114.13;1663732;86;21180;-78
2022/10/10 00:42:04;;;;;;;9.58;2.77;;;;;;;5.85;100.00;100111.39;1664673;86;21504;-77
2022/10/10 00:44:37;;;;;;;6.37;2.17;;;;;;;5.85;100.00;100111.39;1664740;86;20945;-78
2022/10/10 00:47:09;;;;;;;7.03;2.50;;;;;;;5.85;100.00;100116.30;1664871;86;21457;-76
2022/10/10 00:49:39;;;;;;;7.70;2.80;;;;;;;5.82;100.00;100107.30;1663915;86;21527;-77
2022/10/10 00:52:12;;;;;;;9.53;3.52;;;;;;;5.82;100.00;100107.30;1664813;86;21124;-77
2022/10/10 00:54:45;;;;;;;5.78;2.52;;;;;;;5.79;100.00;100103.76;1668072;86;21012;-77
2022/10/10 00:57:15;;;;;;;5.95;2.67;;;;;;;5.79;100.00;100111.11;1664956;86;21539;-77
2022/10/10 00:59:45;;;;;;;7.97;2.67;;;;;;;5.77;100.00;100114.14;1664970;86;20952;-77
2022/10/10 01:02:16;;;;;;;9.65;2.30;;;;;;;5.79;100.00;100111.11;1664776;86;20957;-78
2022/10/10 01:04:48;;;;;;;4.55;2.00;;;;;;;5.78;100.00;100115.75;1665090;86;21157;-78
2022/10/10 01:07:23;;;;;;;10.55;1.98;;;;;;;5.80;100.00;100116.84;1665009;86;20897;-78
2022/10/10 01:09:54;;;;;;;7.10;2.25;;;;;;;5.81;100.00;100121.20;1664372;86;21057;-78
2022/10/10 01:12:28;;;;;;;7.08;2.37;;;;;;;5.81;100.00;100121.20;1662336;86;20993;-77
2022/10/10 01:15:20;;;;;;;4.42;1.90;;;;;;;5.78;100.00;100123.92;1656327;86;20968;-78
2022/10/10 01:18:25;;;;;;;7.08;2.60;;;;;;;5.79;100.00;100128.28;1663132;85;21194;-78
2022/10/10 01:21:08;;;;;;;1.87;1.55;;;;;;;5.78;100.00;100124.46;1664752;86;20991;-78
2022/10/10 01:23:43;;;;;;;8.78;1.90;;;;;;;5.73;100.00;100125.30;1664908;86;20941;-78
2022/10/10 01:26:51;;;;;;;6.25;2.25;;;;;;;5.77;100.00;100133.21;1664911;86;21009;-78
2022/10/10 01:29:41;;;;;;;9.88;2.22;;;;;;;5.76;100.00;100128.84;1678180;85;20928;-78
2022/10/10 01:32:34;;;;;;;9.55;2.62;;;;;;;5.72;100.00;100139.19;1705151;83;21180;-77
2022/10/10 01:35:19;;;;;;;7.87;2.90;;;;;;;5.72;100.00;100139.19;1657388;84;21015;-77
2022/10/10 01:37:53;;;;;;;7.40;2.40;;;;;;;5.73;100.00;100142.19;1665190;85;20949;-78
2022/10/10 01:40:41;;;;;;;4.22;2.20;;;;;;;5.69;100.00;100137.82;1664965;85;20916;-77
2022/10/10 01:43:11;;;;;;;5.22;2.33;;;;;;;5.72;100.00;100144.64;1664212;86;20941;-77
2022/10/10 01:45:48;;;;;;;10.15;2.60;;;;;;;5.59;100.00;100146.78;1676816;84;21924;-77
2022/10/10 01:48:22;;;;;;;8.20;2.50;;;;;;;5.59;100.00;100146.78;1698867;83;20940;-77
2022/10/10 01:51:22;;;;;;;6.55;2.27;;;;;;;5.51;100.00;100153.30;1697827;83;20936;-77
2022/10/10 01:54:06;;;;;;;4.80;2.20;;;;;;;5.51;100.00;100153.30;1698413;84;20956;-77
2022/10/10 01:56:56;;;;;;;6.50;2.00;;;;;;;5.48;100.00;100149.74;1697962;83;20936;-77
2022/10/10 01:59:29;;;;;;;4.08;1.90;;;;;;;5.46;100.00;100153.28;1668683;84;21083;-77
2022/10/10 02:02:12;;;;;;;13.35;2.47;;;;;;;5.44;100.00;100160.89;1679147;84;20975;-77
2022/10/10 02:04:54;;;;;;;9.00;2.27;;;;;;;5.38;100.00;100159.23;1680517;83;20927;-78
2022/10/10 02:07:25;;;;;;;;;;;;;;;5.30;100.00;100158.66;1684065;85;20931;-78
2022/10/10 02:09:58;;;;;;;7.05;2.20;;;;;;;5.29;100.00;100165.19;1667979;85;20101;-77
2022/10/10 02:12:28;;;;;;;5.80;2.05;;;;;;;5.22;100.00;100164.61;1682748;84;21015;-77
2022/10/10 02:15:02;;;;;;;3.30;1.98;;;;;;;5.16;100.00;100173.88;1681686;84;20892;-77
2022/10/10 02:17:30;;;;;;;5.62;2.08;;;;;;;5.14;100.00;100167.88;1706723;82;21483;-77
2022/10/10 02:20:06;;;;;;;4.45;1.90;;;;;;;5.14;100.00;100167.88;1689150;83;20895;-78
2022/10/10 02:22:42;;;;;;;7.65;1.90;;;;;;;5.13;100.00;100166.78;1679646;83;20975;-77
2022/10/10 02:25:12;;;;;;;7.03;2.00;;;;;;;5.08;100.00;100177.09;1710234;82;21816;-77
2022/10/10 02:28:07;;;;;;;4.65;1.90;;;;;;;5.08;100.00;100177.09;1701500;83;20939;-82
2022/10/10 02:30:41;;;;;;;5.55;2.52;;;;;;;5.05;100.00;100180.88;1705885;83;20924;-84
2022/10/10 02:33:09;;;;;;;4.12;1.60;;;;;;;4.93;100.00;100186.53;1707123;83;21459;-88
2022/10/10 02:35:41;;;;;;;4.17;2.33;;;;;;;4.93;100.00;100186.53;1706510;83;20948;-82
2022/10/10 02:38:13;;;;;;;9.20;2.12;;;;;;;4.90;100.00;100184.33;1704931;83;21539;-77
2022/10/10 02:40:45;;;;;;;6.65;1.75;;;;;;;4.91;100.00;100193.59;1708678;83;20946;-78
2022/10/10 02:43:14;;;;;;;4.58;1.77;;;;;;;4.91;100.00;100196.31;1708955;83;21039;-74
2022/10/10 02:45:46;;;;;;;6.42;2.20;;;;;;;4.89;100.00;100193.58;1703826;83;20958;-76
2022/10/10 02:48:16;;;;;;;6.60;2.02;;;;;;;4.91;100.00;100196.85;1660119;83;21011;-76
2022/10/10 02:50:43;;;;;;;4.20;1.90;;;;;;;4.92;100.00;100193.87;1705981;83;21538;-77
2022/10/10 02:53:15;;;;;;;6.50;2.35;;;;;;;4.93;100.00;100200.13;1706042;83;20986;-74
2022/10/10 02:55:42;;;;;;;6.25;1.90;;;;;;;4.95;100.00;100197.97;1711089;83;21471;-76
2022/10/10 02:58:10;;;;;;;8.78;2.40;;;;;;;4.97;100.00;100195.80;1710356;83;20948;-77
2022/10/10 03:00:39;;;;;;;4.20;1.87;;;;;;;4.98;100.00;100194.72;1709894;84;20956;-78
2022/10/10 03:03:06;;;;;;;9.03;2.40;;;;;;;4.94;100.00;100197.69;1710040;84;21211;-75
2022/10/10 03:05:38;;;;;;;4.15;1.92;;;;;;;4.94;100.00;100197.69;1709808;83;21007;-78
2022/10/10 03:08:06;;;;;;;4.55;1.67;;;;;;;5.13;100.00;100198.89;1709666;83;20861;-77
2022/10/10 03:10:36;;;;;;;5.90;2.10;;;;;;;5.05;100.00;100193.95;1709865;84;21032;-84
2022/10/10 03:13:03;;;;;;;3.42;1.77;;;;;;;5.05;100.00;100193.95;1712664;83;20995;-80
2022/10/10 03:15:30;;;;;;;4.53;1.80;;;;;;;5.02;100.00;100199.91;1710189;83;21511;-86
2022/10/10 03:17:56;;;;;;;5.10;1.90;;;;;;;4.95;100.00;100196.61;1693528;83;20850;-91
2022/10/10 03:20:23;;;;;;;4.47;2.17;;;;;;;4.89;100.00;100205.28;1694322;83;20913;-85
2022/10/10 03:22:49;;;;;;;6.78;2.00;;;;;;;4.85;100.00;100200.08;1697326;83;21021;-78
2022/10/10 03:25:17;;;;;;;5.85;2.05;;;;;;;4.85;100.00;100207.42;1693460;83;20907;-88
2022/10/10 03:27:44;;;;;;;3.77;1.77;;;;;;;4.83;100.00;100209.58;1691925;83;21554;-77
2022/10/10 03:30:12;;;;;;;3.50;1.95;;;;;;;4.81;100.00;100205.77;1681610;84;20965;-82
2022/10/10 03:32:39;;;;;;;7.87;2.25;;;;;;;4.81;100.00;100209.84;1694041;84;21044;-81
2022/10/10 03:35:06;;;;;;;4.50;2.00;;;;;;;4.80;100.00;100214.19;1700971;84;20921;-76
2022/10/10 03:37:33;;;;;;;5.30;2.45;;;;;;;4.80;100.00;100217.73;1700869;84;21504;-77
2022/10/10 03:39:59;;;;;;;5.67;1.80;;;;;;;4.83;100.00;100216.38;1700870;84;21166;-74
2022/10/10 03:42:27;;;;;;;6.75;2.42;;;;;;;4.82;100.00;100217.47;1700958;84;20940;-81
2022/10/10 03:44:54;;;;;;;7.33;2.42;;;;;;;4.80;100.00;100216.91;1700232;84;21578;-77
2022/10/10 03:47:20;;;;;;;6.45;2.45;;;;;;;4.76;100.00;100211.17;1699450;84;20960;-77
2022/10/10 03:49:48;;;;;;;7.28;2.83;;;;;;;4.74;100.00;100217.95;1700923;84;20896;-79
2022/10/10 03:52:15;;;;;;;8.55;2.83;;;;;;;4.72;100.00;100214.67;1700935;83;21153;-78
2022/10/10 03:54:41;;;;;;;6.97;3.05;;;;;;;4.69;100.00;100219.27;1700733;84;21594;-74
2022/10/10 03:57:09;;;;;;;6.85;2.58;;;;;;;4.66;100.00;100226.05;1699472;84;20954;-80
2022/10/10 03:59:35;;;;;;;6.50;3.17;;;;;;;4.64;100.00;100226.31;1699654;84;20909;-81
2022/10/10 04:02:01;;;;;;;10.35;3.47;;;;;;;4.57;100.00;100224.38;1664760;85;20948;-78
2022/10/10 04:04:28;;;;;;;8.35;2.95;;;;;;;4.57;100.00;100224.38;1623489;87;21562;-76
2022/10/10 04:06:55;;;;;;;5.22;2.72;;;;;;;4.52;100.00;100231.14;1698889;84;20909;-73
2022/10/10 04:09:22;;;;;;;4.05;2.12;;;;;;;4.50;100.00;100239.27;1700594;84;20999;-77
2022/10/10 04:11:49;;;;;;;9.65;2.90;;;;;;;4.44;100.00;100230.25;1700797;84;20972;-75
2022/10/10 04:14:16;;;;;;;8.83;2.70;;;;;;;4.43;100.00;100235.94;1699895;84;21010;-78
2022/10/10 04:16:44;;;;;;;5.25;2.62;;;;;;;4.36;100.00;100234.80;1699269;84;21106;-77
2022/10/10 04:19:10;;;;;;;7.33;2.47;;;;;;;4.36;100.00;100234.80;1698357;84;20928;-73
2022/10/10 04:21:37;;;;;;;5.00;2.50;;;;;;;4.27;100.00;100240.42;1698880;84;20945;-76
2022/10/10 04:24:04;;;;;;;4.72;2.90;;;;;;;4.27;100.00;100240.42;1697915;84;20948;-80
2022/10/10 04:26:30;;;;;;;10.53;3.17;;;;;;;4.28;100.00;100245.59;1697677;84;20906;-75
2022/10/10 04:28:58;;;;;;;9.55;3.92;;;;;;;4.30;100.00;100252.13;1712415;83;21124;-75
2022/10/10 04:31:26;;;;;;;10.93;4.53;;;;;;;4.29;100.00;100256.75;1712170;83;20931;-76
2022/10/10 04:33:52;;;;;;;7.62;3.83;;;;;;;4.29;100.00;100256.75;1656848;85;20960;-77
2022/10/10 04:36:19;;;;;;;8.48;3.75;;;;;;;4.29;100.00;100261.36;1664779;86;21016;-76
2022/10/10 04:38:45;;;;;;;7.62;2.87;;;;;;;4.27;100.00;100261.63;1664449;85;20980;-75
2022/10/10 04:41:14;;;;;;;10.78;2.62;;;;;;;4.28;100.00;100263.80;1631164;87;21143;-82
2022/10/10 04:43:41;;;;;;;6.92;2.72;;;;;;;4.31;100.00;100260.57;1662536;85;20965;-76
2022/10/10 04:46:08;;;;;;;5.22;2.40;;;;;;;4.40;100.00;100259.03;1646351;87;21449;-77
2022/10/10 04:48:36;;;;;;;5.47;2.70;;;;;;;4.40;100.00;100259.03;1646381;87;20933;-78
2022/10/10 04:51:02;;;;;;;5.17;2.30;;;;;;;4.44;100.00;100268.31;1646749;87;21039;-74
2022/10/10 04:53:29;;;;;;;6.87;2.58;;;;;;;4.46;100.00;100267.52;1646653;87;21291;-71
2022/10/10 04:55:55;;;;;;;3.72;2.15;;;;;;;4.54;100.00;100270.30;1646465;87;20964;-77
2022/10/10 04:58:22;;;;;;;4.58;2.00;;;;;;;4.54;100.00;100270.30;1647239;87;21706;-74
2022/10/10 05:00:55;;;;;;;8.93;2.90;;;;;;;4.59;100.00;100267.09;1647659;87;20957;-74
2022/10/10 05:03:22;;;;;;;4.33;2.27;;;;;;;4.63;100.00;100272.27;1647546;87;20946;-77
2022/10/10 05:05:49;;;;;;;5.72;2.58;;;;;;;4.69;100.00;100272.30;1646723;87;21179;-75
2022/10/10 05:08:16;;;;;;;6.65;2.70;;;;;;;4.75;100.00;100276.70;1646395;87;20949;-73
2022/10/10 05:10:44;;;;;;;4.90;2.40;;;;;;;4.78;100.00;100271.57;1642984;86;20931;-74
2022/10/10 05:13:14;;;;;;;8.80;2.20;;;;;;;4.78;100.00;100271.57;1645061;85;20925;-78
2022/10/10 05:15:41;;;;;;;8.80;2.37;;;;;;;4.86;100.00;100281.97;1645230;86;20922;-77
2022/10/10 05:18:08;;;;;;;9.48;2.45;;;;;;;4.93;100.00;100280.39;1641916;86;21099;-74
2022/10/10 05:20:36;;;;;;;5.65;2.67;;;;;;;4.98;100.00;100286.70;1651931;85;21002;-75
2022/10/10 05:23:03;;;;;;;9.68;3.40;;;;;;;5.04;100.00;100290.27;1647707;86;21152;-74
2022/10/10 05:25:30;;;;;;;8.10;3.37;;;;;;;5.10;100.00;100291.95;1647955;87;20991;-77
2022/10/10 05:27:58;;;;;;;15.10;4.17;;;;;;;5.19;100.00;100290.92;1643883;86;21030;-73
2022/10/10 05:30:24;;;;;;;11.80;3.62;;;;;;;5.24;100.00;100290.39;1644866;87;21713;-81
2022/10/10 05:32:52;;;;;;;9.50;3.58;;;;;;;5.34;100.00;100296.98;1653257;86;21009;-75
2022/10/10 05:35:19;;;;;;;9.00;3.60;;;;;;;5.34;100.00;100296.98;1653717;86;21001;-74
2022/10/10 05:37:46;;;;;;;7.33;3.87;;;;;;;5.50;100.00;100298.72;1649149;86;21576;-76
2022/10/10 05:40:12;;;;;;;8.65;4.00;;;;;;;5.50;100.00;100298.72;1650526;86;21069;-75
2022/10/10 05:42:40;;;;;;;13.43;3.83;;;;;;;5.59;100.00;100300.67;1650357;86;21541;-73
2022/10/10 05:45:09;;;;;;;14.50;5.17;;;;;;;5.80;100.00;100302.93;1649037;86;20925;-76
2022/10/10 05:47:36;;;;;;;13.43;4.30;;;;;;;5.80;100.00;100302.93;1651469;86;21064;-77
2022/10/10 05:50:04;;;;;;;11.53;5.33;;;;;;;5.95;100.00;100296.22;1649661;86;20980;-80
2022/10/10 05:52:34;;;;;;;14.33;5.95;;;;;;;6.08;100.00;100298.16;1648391;85;21076;-73
2022/10/10 05:55:00;;;;;;;11.15;4.67;;;;;;;6.18;100.00;100300.92;1632039;86;21165;-74
2022/10/10 05:57:27;;;;;;;13.75;4.20;;;;;;;6.31;100.00;100305.88;1649771;86;20990;-76
2022/10/10 05:59:54;;;;;;;14.95;4.92;;;;;;;6.47;100.00;100303.42;1651016;86;20936;-75
2022/10/10 06:02:21;;;;;;;6.42;3.27;;;;;;;6.66;100.00;100311.91;1616619;86;21572;-79
2022/10/10 06:04:48;;;;;;;5.05;2.70;;;;;;;6.74;100.00;100302.38;1594328;88;21125;-79
2022/10/10 06:07:16;;;;;;;8.20;2.58;;;;;;;6.85;100.00;100305.37;1597980;88;21182;-80
2022/10/10 06:09:42;;;;;;;7.67;2.60;;;;;;;6.94;100.00;100308.63;1648547;86;21065;-78
2022/10/10 06:12:09;;;;;;;7.35;2.50;;;;;;;6.98;100.00;100308.08;1633942;87;21073;-77
2022/10/10 06:14:37;;;;;;;5.78;2.60;;;;;;;6.99;100.00;100305.08;1635512;86;21037;-77
2022/10/10 06:17:03;;;;;;;9.25;2.77;;;;;;;7.02;100.00;100316.81;1637077;85;21081;-82
2022/10/10 06:19:32;;;;;;;7.00;2.67;;;;;;;7.08;100.00;100314.36;1702873;83;21042;-78
2022/10/10 06:22:35;;;;;;;4.42;2.35;;;;;;;7.13;100.00;100319.00;1706455;82;21038;-77
2022/10/10 06:25:04;;;;;;;7.92;2.62;;;;;;;7.21;100.00;100320.62;1685728;84;26612;-79
2022/10/10 06:27:32;;;;;;;2.98;2.10;;;;;;;7.31;100.00;100319.80;1708509;83;21067;-76
2022/10/10 06:29:59;;;;;;;4.20;2.60;;;;;;;7.43;100.00;100319.52;1708763;84;21019;-77
2022/10/10 06:32:29;;;;;;;11.10;2.15;;;;;;;7.50;100.00;100325.52;1710032;83;21283;-77
2022/10/10 06:34:55;;;;;;;5.65;2.37;;;;;;;7.61;100.00;100319.72;1710638;84;21008;-75
2022/10/10 06:37:22;;;;;;;6.37;2.30;;;;;;;7.73;100.00;100321.33;1707531;83;20975;-74
2022/10/10 06:39:50;;;;;;;8.88;3.10;;;;;;;7.83;100.00;100322.66;1701607;82;21003;-84
2022/10/10 06:42:17;;;;;;;5.45;3.05;;;;;;;8.07;100.00;100317.38;1708438;83;21145;-80
2022/10/10 06:44:44;;;;;;;6.83;3.00;;;;;;;8.42;100.00;100320.48;1705466;83;21137;-76
2022/10/10 06:47:11;;;;;;;9.85;3.92;;;;;;;8.91;100.00;100329.98;1703486;83;21035;-77
2022/10/10 06:49:39;;;;;;;10.48;3.55;;;;;;;9.48;100.00;100322.89;1711963;83;20904;-78
2022/10/10 06:52:06;;;;;;;13.08;2.80;;;;;;;10.09;100.00;100323.00;1711832;83;21075;-78
2022/10/10 06:54:32;;;;;;;8.10;1.70;;;;;;;10.61;100.00;100324.51;1698781;84;21109;-77
2022/10/10 06:57:00;;;;;;;3.08;1.60;;;;;;;10.94;100.00;100319.33;1704456;83;21085;-82
2022/10/10 06:59:27;;;;;;;3.42;1.80;;;;;;;11.16;100.00;100316.73;1703327;82;21604;-79
2022/10/10 07:01:54;;;;;;;3.60;1.67;;;;;;;11.44;100.00;100325.88;1693927;83;21568;-76
2022/10/10 07:04:21;;;;;;;4.05;1.70;;;;;;;11.62;98.80;100328.27;1704123;83;20904;-80
2022/10/10 07:06:48;;;;;;;6.33;1.62;;;;;;;11.73;96.83;100324.20;1691243;83;20856;-80
2022/10/10 07:09:16;;;;;;;4.28;1.30;;;;;;;11.90;95.60;100329.14;1712100;83;21277;-80
2022/10/10 07:11:44;;;;;;;5.53;1.35;;;;;;;12.17;96.31;100323.60;1710268;83;20955;-79
2022/10/10 07:14:11;;;;;;;6.85;2.05;;;;;;;12.51;92.44;100320.95;1706875;83;20907;-78
2022/10/10 07:16:39;;;;;;;3.60;1.75;;;;;;;12.70;91.30;100322.18;1691806;84;20969;-73
2022/10/10 07:19:07;;;;;;;8.40;1.55;;;;;;;12.79;87.23;100333.50;1705073;83;20888;-81
2022/10/10 07:21:34;;;;;;;5.12;1.40;;;;;;;12.71;87.93;100327.34;1694887;84;21789;-79
2022/10/10 07:24:00;;;;;;;4.25;1.77;;;;;;;12.83;89.03;100324.86;1694693;84;21039;-77
2022/10/10 07:26:29;;;;;;;4.60;1.30;;;;;;;13.02;88.99;100328.82;1690803;84;21580;-78
2022/10/10 07:29:01;;;;;;;5.08;1.52;;;;;;;13.18;85.16;100333.43;1693069;84;21024;-80
2022/10/10 07:31:27;;;;;;;4.05;1.32;;;;;;;13.31;84.33;100326.19;1688707;83;20897;-84
2022/10/10 07:33:54;;;;;;;5.62;1.32;;;;;;;13.28;82.83;100333.73;1691700;84;21102;-82
2022/10/10 07:36:21;;;;;;;3.35;1.22;;;;;;;13.22;81.42;100334.43;1697699;84;21041;-82
2022/10/10 07:38:52;;;;;;;6.15;1.37;;;;;;;13.24;83.25;100328.04;1692171;84;20904;-84
2022/10/10 07:41:19;;;;;;;5.25;1.40;;;;;;;13.49;84.06;100327.36;1695523;83;21440;-78
2022/10/10 07:43:45;;;;;;;7.00;1.10;;;;;;;13.92;81.46;100323.96;1705383;82;21535;-81
2022/10/10 07:46:18;;;;;;;4.80;1.40;;;;;;;14.15;79.47;100321.93;1698251;83;21136;-78
2022/10/10 07:48:45;;;;;;;3.40;1.60;;;;;;;14.29;76.74;100324.00;1698839;84;20984;-79
2022/10/10 07:51:11;;;;;;;5.55;1.60;;;;;;;14.45;77.92;100317.45;1688980;83;20947;-78
2022/10/10 07:53:39;;;;;;;7.30;1.60;;;;;;;14.73;76.64;100323.50;1698951;84;20932;-79
2022/10/10 07:56:08;;;;;;;4.00;1.70;;;;;;;14.78;74.23;100322.77;1687693;84;21028;-79
2022/10/10 07:58:35;;;;;;;6.33;1.60;;;;;;;14.73;73.29;100313.83;1681442;84;21884;-77
2022/10/10 08:01:08;;;;;;;5.03;1.40;;;;;;;14.71;73.18;100319.67;1678196;84;21074;-82
2022/10/10 08:03:35;;;;;;;3.42;1.22;;;;;;;14.59;72.30;100322.83;1697317;83;20988;-80
2022/10/10 08:06:05;;;;;;;4.85;1.50;;;;;;;14.37;73.39;100319.63;1700881;84;21082;-82
2022/10/10 08:08:35;;;;;;;4.75;1.57;;;;;;;14.39;72.93;100316.79;1701035;83;20995;-79
2022/10/10 08:11:06;;;;;;;3.55;1.50;;;;;;;14.60;72.62;100317.55;1700679;83;21177;-82
2022/10/10 08:13:34;;;;;;;2.75;1.25;;;;;;;14.90;74.45;100316.59;1701082;84;21048;-77
2022/10/10 08:16:01;;;;;;;4.28;1.07;;;;;;;15.42;70.92;100322.84;1701120;84;21004;-80
2022/10/10 08:18:32;;;;;;;5.50;1.40;;;;;;;15.67;70.63;100314.23;1699891;83;21493;-75
2022/10/10 08:21:03;;;;;;;3.47;1.25;;;;;;;15.75;69.49;100318.92;1698651;84;20905;-77
2022/10/10 08:23:30;;;;;;;5.78;1.27;;;;;;;15.90;69.83;100313.98;1679090;84;21305;-82
2022/10/10 08:26:04;;;;;;;5.62;1.72;;;;;;;16.14;67.84;100310.85;1699054;83;21473;-73
2022/10/10 08:28:34;;;;;;;4.28;1.37;;;;;;;16.33;67.37;100317.89;1679684;84;20956;-79
2022/10/10 08:31:11;;;;;;;4.08;1.07;;;;;;;16.65;66.05;100317.78;1699312;83;20960;-79
2022/10/10 08:33:39;;;;;;;5.15;1.20;;;;;;;16.76;62.56;100321.17;1697451;84;20952;-73
2022/10/10 08:36:19;;;;;;;4.17;1.15;;;;;;;16.68;63.38;100318.50;1697582;83;21284;-79
2022/10/10 08:38:46;;;;;;;2.20;1.20;;;;;;;16.84;64.24;100320.30;1697258;83;21052;-78
2022/10/10 08:41:35;;;;;;;5.25;1.10;;;;;;;16.88;60.21;100313.50;1697278;83;20996;-78
2022/10/10 08:44:10;;;;;;;3.10;1.25;;;;;;;16.74;61.84;100324.89;1677053;84;21432;-81
2022/10/10 08:46:43;;;;;;;5.00;1.47;;;;;;;16.53;62.17;100319.06;1699084;83;20955;-76
2022/10/10 08:49:33;;;;;;;7.70;1.20;;;;;;;16.56;62.18;100319.78;1691504;84;21215;-81
2022/10/10 08:52:07;;;;;;;3.50;1.00;;;;;;;16.54;61.99;100319.30;1698191;83;21499;-69
2022/10/10 08:54:34;;;;;;;3.62;1.17;;;;;;;16.25;60.14;100326.48;1659990;83;21022;-73
2022/10/10 08:57:04;;;;;;;9.13;1.20;;;;;;;15.73;62.16;100322.59;1708339;83;21456;-84
2022/10/10 08:59:34;;;;;;;4.47;1.10;;;;;;;15.57;61.97;100327.07;1675551;83;21165;-78
2022/10/10 09:02:37;;;;;;;2.33;0.93;;;;;;;15.63;61.97;100317.98;1711809;83;21904;-81
2022/10/10 09:05:06;;;;;;;3.85;1.90;;;;;;;16.06;61.95;100313.66;1668999;83;20960;-73
2022/10/10 09:07:39;;;;;;;6.70;1.10;;;;;;;16.36;61.07;100310.29;1701717;83;21019;-77
2022/10/10 09:10:39;;;;;;;3.70;0.90;;;;;;;16.36;60.77;100310.29;1692060;84;21076;-75
2022/10/10 09:13:31;;;;;;;5.67;1.87;;;;;;;16.20;60.46;100314.21;1695351;83;20979;-77
2022/10/10 09:16:05;;;;;;;3.15;1.42;;;;;;;16.34;59.82;100316.73;1691007;84;21145;-85
2022/10/10 09:18:58;;;;;;;5.45;1.60;;;;;;;16.81;56.88;100307.69;1695535;83;21106;-80
2022/10/10 09:21:28;;;;;;;5.33;1.57;;;;;;;17.30;56.15;100314.83;1698158;84;20983;-92
2022/10/10 09:24:16;;;;;;;2.77;0.93;;;;;;;17.44;55.67;100316.69;1671787;84;20964;-79
2022/10/10 09:27:02;;;;;;;3.10;0.80;;;;;;;17.31;54.52;100316.45;1693113;84;20956;-80
2022/10/10 09:29:40;;;;;;;2.58;0.68;;;;;;;17.44;55.24;100320.86;1697146;84;21867;-80
2022/10/10 09:32:26;;;;;;;1.45;0.80;;;;;;;17.71;56.79;100320.26;1702012;83;20920;-78
2022/10/10 09:35:27;;;;;;;2.60;0.90;;;;;;;17.92;53.49;100317.36;1700825;84;20979;-76
2022/10/10 09:38:22;;;;;;;1.98;0.70;;;;;;;18.24;51.59;100312.05;1694282;84;20943;-75
2022/10/10 09:41:21;;;;;;;2.67;0.72;;;;;;;18.58;51.10;100309.31;1607080;89;20977;-84
2022/10/10 09:43:56;;;;;;;3.77;0.82;;;;;;;18.73;50.97;100307.22;1646410;86;21160;-82
2022/10/10 09:46:23;;;;;;;2.90;1.00;;;;;;;18.72;50.06;100302.23;1658434;86;21574;-82
2022/10/10 09:48:50;;;;;;;4.62;1.02;;;;;;;18.59;49.25;100313.71;1703673;84;20897;-82
2022/10/10 09:51:18;;;;;;;3.80;1.02;;;;;;;18.68;49.83;100306.88;1687492;83;21569;-76
2022/10/10 09:53:46;;;;;;;2.83;0.95;;;;;;;18.82;49.26;100305.69;1666430;85;20973;-77
2022/10/10 09:56:23;;;;;;;3.17;1.00;;;;;;;18.74;50.86;100301.30;1678537;85;21154;-74
2022/10/10 09:58:51;;;;;;;3.15;1.00;;;;;;;18.89;49.93;100301.14;1689505;84;20939;-73
2022/10/10 10:01:30;;;;;;;4.35;1.10;;;;;;;18.82;48.03;100303.72;1705208;83;21020;-76
2022/10/10 10:04:16;;;;;;;2.27;0.70;;;;;;;18.74;49.13;100287.98;1712794;83;21515;-75
2022/10/10 10:06:50;;;;;;;3.67;1.10;;;;;;;18.74;47.42;100298.52;1713218;83;21003;-73
2022/10/10 10:09:20;;;;;;;5.45;1.30;;;;;;;18.89;48.12;100290.02;1702522;83;21258;-76
2022/10/10 10:11:50;;;;;;;2.50;0.85;;;;;;;19.16;47.30;100295.91;1699498;84;20894;-73
2022/10/10 10:14:24;;;;;;;1.60;0.72;;;;;;;19.18;44.90;100296.37;1699178;84;20905;-77
2022/10/10 10:16:54;;;;;;;5.22;0.72;;;;;;;18.91;44.64;100301.60;1699425;83;21027;-86
2022/10/10 10:19:37;;;;;;;2.52;0.65;;;;;;;18.76;44.11;100294.00;1698145;84;20949;-78
2022/10/10 10:22:04;;;;;;;2.67;0.60;;;;;;;18.86;44.19;100293.50;1697930;83;21214;-77
2022/10/10 10:24:35;;;;;;;0.60;0.40;;;;;;;19.10;42.76;100285.03;1697424;83;20901;-75
2022/10/10 10:27:11;;;;;;;4.72;0.82;;;;;;;19.06;42.33;100291.08;1694234;83;20985;-76
2022/10/10 10:29:38;;;;;;;7.40;0.90;;;;;;;19.05;43.60;100291.47;1692605;84;21056;-74
2022/10/10 10:32:34;;;;;;;2.75;0.78;;;;;;;19.12;44.67;100286.88;1653126;84;20996;-73
2022/10/10 10:35:29;;;;;;;3.90;0.88;;;;;;;19.11;41.04;100278.89;1697066;83;21217;-75
2022/10/10 10:38:32;;;;;;;6.03;0.70;;;;;;;18.95;42.87;100284.44;1697902;83;21015;-77
2022/10/10 10:41:28;;;;;;;3.15;0.70;;;;;;;19.06;42.20;100276.39;1697341;83;20869;-78
2022/10/10 10:44:26;;;;;;;2.20;0.80;;;;;;;19.46;41.97;100289.60;1697613;83;21566;-78
2022/10/10 10:47:21;;;;;;;1.90;0.72;;;;;;;19.53;40.70;100277.06;1697916;83;20940;-76
2022/10/10 10:50:24;;;;;;;2.33;0.75;;;;;;;19.55;39.98;100284.48;1677647;84;21240;-73
2022/10/10 10:53:17;;;;;;;2.67;0.57;;;;;;;19.46;40.22;100281.83;1697119;83;20937;-75
2022/10/10 10:56:03;;;;;;;6.85;1.10;;;;;;;19.48;38.59;100277.30;1697258;84;21045;-84
2022/10/10 10:58:53;;;;;;;2.52;0.80;;;;;;;19.09;40.12;100280.63;1697384;83;20956;-83
2022/10/10 11:01:28;;;;;;;3.27;0.72;;;;;;;19.06;41.07;100270.21;1696021;84;20962;-78
2022/10/10 11:04:27;;;;;;;1.72;0.80;;;;;;;19.36;41.13;100265.07;1697816;83;21311;-75
2022/10/10 11:07:15;;;;;;;4.22;1.50;;;;;;;19.55;40.10;100265.80;1659326;85;21150;-76
2022/10/10 11:10:02;;;;;;;4.80;1.17;;;;;;;19.88;39.79;100259.03;1663001;85;21088;-74
2022/10/10 11:13:00;;;;;;;3.83;1.20;;;;;;;19.98;39.47;100248.14;1645916;86;21496;-74
2022/10/10 11:15:35;;;;;;;3.37;0.65;;;;;;;20.27;38.76;100266.31;1612781;87;21049;-75
2022/10/10 11:18:26;;;;;;;1.90;0.72;;;;;;;20.45;36.63;100268.14;1625224;87;21186;-74
2022/10/10 11:21:04;;;;;;;1.30;0.70;;;;;;;20.50;36.12;100256.70;1651455;86;21040;-75
2022/10/10 11:23:35;;;;;;;1.42;0.60;;;;;;;20.50;35.99;100258.68;1610810;88;21564;-74
2022/10/10 11:26:13;;;;;;;3.10;0.50;;;;;;;20.24;36.45;100254.49;1654766;86;21040;-74
2022/10/10 11:29:04;;;;;;;7.45;0.90;;;;;;;20.16;37.46;100249.14;1645083;86;21551;-77
2022/10/10 11:31:37;;;;;;;1.42;0.40;;;;;;;20.07;37.04;100250.73;1692449;84;22016;-76
2022/10/10 11:34:09;;;;;;;1.33;0.57;;;;;;;19.83;36.91;100244.78;1693716;84;21005;-82
2022/10/10 11:36:38;;;;;;;3.85;0.62;;;;;;;19.67;37.20;100248.97;1694306;83;21032;-74
2022/10/10 11:39:19;;;;;;;4.25;0.80;;;;;;;19.79;39.24;100243.89;1698096;83;21508;-78
2022/10/10 11:42:02;;;;;;;1.50;0.40;;;;;;;20.05;38.07;100255.28;1695129;84;20916;-76
2022/10/10 11:44:36;;;;;;;2.10;0.57;;;;;;;20.29;36.13;100249.22;1695254;83;21132;-82
2022/10/10 11:47:21;;;;;;;4.62;0.70;;;;;;;20.39;36.49;100248.09;1694850;84;21031;-76
2022/10/10 11:50:17;;;;;;;2.35;0.98;;;;;;;20.59;35.81;100250.33;1694722;83;20897;-77
2022/10/10 11:53:13;;;;;;;1.98;0.65;;;;;;;20.85;35.66;100254.41;1695017;84;21081;-74